Time;durP1;ratioP1;P1;durP2;ratioP2;P2;SDS_P1;SDS_P2;PMS_P1;PMS_P2;Temp;Humidity;BMP_temperature;BMP_pressure;BME280_temperature;BME280_humidity;BME280_pressure;Samples;Min_cycle;Max_cycle;Signal;HPM_P1;HPM_P2
2023/08/26 00:02:26;;;;;;;4.80;1.60;;;21.60;99.90;;;;;;5072430;28;20028;-58
2023/08/26 00:04:52;;;;;;;2.72;1.30;;;21.60;99.90;;;;;;5071658;28;20033;-59
2023/08/26 00:07:17;;;;;;;5.05;1.50;;;21.60;99.90;;;;;;5072201;28;20024;-59
2023/08/26 00:09:43;;;;;;;2.65;1.38;;;21.50;99.90;;;;;;5072444;28;20028;-58
2023/08/26 00:12:09;;;;;;;4.20;1.42;;;21.70;99.90;;;;;;5071908;28;20027;-58
2023/08/26 00:14:34;;;;;;;3.70;1.58;;;21.70;99.90;;;;;;5071916;28;20554;-59
2023/08/26 00:17:00;;;;;;;2.72;1.20;;;21.70;99.90;;;;;;5071992;28;20044;-58
2023/08/26 00:19:26;;;;;;;4.32;1.70;;;21.70;99.90;;;;;;5071485;28;20481;-59
2023/08/26 00:21:52;;;;;;;4.47;1.58;;;21.70;99.90;;;;;;5072046;28;20039;-59
2023/08/26 00:24:18;;;;;;;3.67;1.65;;;21.50;99.90;;;;;;5071713;28;20099;-59
2023/08/26 00:26:44;;;;;;;4.53;1.45;;;21.40;99.90;;;;;;5071697;28;20056;-59
2023/08/26 00:29:09;;;;;;;3.00;1.48;;;21.20;99.90;;;;;;5071715;28;20463;-59
2023/08/26 00:31:35;;;;;;;5.45;1.70;;;21.10;99.90;;;;;;5071961;28;20036;-59
2023/08/26 00:34:03;;;;;;;3.63;1.60;;;21.10;99.90;;;;;;5071741;28;20024;-59
2023/08/26 00:36:30;;;;;;;5.63;1.50;;;21.10;99.90;;;;;;5071510;28;20119;-58
2023/08/26 00:38:59;;;;;;;4.07;1.65;;;21.00;99.90;;;;;;5071370;28;20021;-59
2023/08/26 00:41:25;;;;;;;5.07;1.70;;;21.00;99.90;;;;;;5071537;28;20027;-58
2023/08/26 00:43:50;;;;;;;3.67;1.55;;;21.00;99.90;;;;;;5071544;28;20532;-59
2023/08/26 00:46:16;;;;;;;5.10;1.80;;;20.90;99.90;;;;;;5071571;28;20028;-59
2023/08/26 00:48:42;;;;;;;4.32;1.60;;;20.80;99.90;;;;;;5071539;28;20031;-59
2023/08/26 00:51:09;;;;;;;3.35;1.30;;;20.90;99.90;;;;;;5071399;28;20508;-58
2023/08/26 00:53:35;;;;;;;4.15;1.60;;;20.80;99.90;;;;;;5071600;28;20017;-59
2023/08/26 00:56:01;;;;;;;3.42;1.50;;;20.80;99.90;;;;;;5071459;28;20106;-59
2023/08/26 00:58:27;;;;;;;3.33;1.23;;;20.70;99.90;;;;;;5071497;28;20578;-59
2023/08/26 01:00:53;;;;;;;2.92;1.23;;;20.80;99.90;;;;;;5071689;28;20028;-59
2023/08/26 01:03:19;;;;;;;4.03;1.50;;;20.80;99.90;;;;;;5070900;28;20017;-59
2023/08/26 01:05:45;;;;;;;3.05;1.48;;;20.80;99.90;;;;;;5071484;28;20029;-58
2023/08/26 01:08:11;;;;;;;2.67;1.30;;;20.90;99.90;;;;;;5071051;28;20081;-58
2023/08/26 01:10:40;;;;;;;3.78;1.30;;;21.10;99.90;;;;;;5071323;28;20501;-59
2023/08/26 01:13:11;;;;;;;3.92;1.40;;;21.20;99.90;;;;;;5071036;28;20039;-59
2023/08/26 01:15:41;;;;;;;2.33;1.40;;;21.40;99.90;;;;;;5070586;28;20025;-59
2023/08/26 01:18:09;;;;;;;3.83;1.60;;;21.40;99.90;;;;;;5071170;28;20633;-59
2023/08/26 01:20:35;;;;;;;5.43;1.38;;;21.50;99.90;;;;;;5071096;28;20086;-58
2023/08/26 01:23:05;;;;;;;5.25;1.35;;;21.50;99.90;;;;;;5053054;28;20037;-59
2023/08/26 01:25:31;;;;;;;2.92;1.17;;;21.60;99.90;;;;;;5070943;28;20119;-59
2023/08/26 01:27:57;;;;;;;3.72;1.35;;;21.60;99.90;;;;;;5070754;28;20136;-58
2023/08/26 01:30:27;;;;;;;3.03;1.35;;;21.50;99.90;;;;;;5071059;28;20103;-59
2023/08/26 01:33:04;;;;;;;3.83;1.30;;;21.60;99.90;;;;;;5070538;28;20036;-59
2023/08/26 01:35:39;;;;;;;3.75;1.40;;;21.50;99.90;;;;;;5070757;28;20395;-59
2023/08/26 01:38:07;;;;;;;3.03;1.20;;;21.50;99.90;;;;;;5070969;28;20033;-58
2023/08/26 01:40:33;;;;;;;2.70;1.00;;;21.60;99.90;;;;;;5071360;28;20028;-59
2023/08/26 01:43:01;;;;;;;2.92;1.40;;;21.40;99.90;;;;;;5070905;28;20055;-59
2023/08/26 01:45:26;;;;;;;3.17;1.27;;;21.20;99.90;;;;;;5070505;28;20039;-59
2023/08/26 01:47:52;;;;;;;2.55;1.10;;;21.00;99.90;;;;;;5070848;28;20037;-59
2023/08/26 01:50:18;;;;;;;4.20;1.20;;;21.00;99.90;;;;;;5070715;28;20024;-59
2023/08/26 01:52:43;;;;;;;3.33;1.35;;;21.00;99.90;;;;;;5070846;28;20032;-60
2023/08/26 01:55:09;;;;;;;3.42;1.42;;;20.90;99.90;;;;;;5071067;28;20021;-58
2023/08/26 01:57:35;;;;;;;3.80;1.60;;;20.70;99.90;;;;;;5070665;28;20032;-59
2023/08/26 02:00:00;;;;;;;4.50;1.92;;;20.60;99.90;;;;;;5070462;28;20032;-60
2023/08/26 02:02:26;;;;;;;4.30;2.20;;;20.60;99.90;;;;;;5070726;28;20036;-59
2023/08/26 02:04:51;;;;;;;3.72;1.60;;;20.40;99.90;;;;;;5052603;28;20032;-59
2023/08/26 02:07:18;;;;;;;5.53;2.00;;;20.40;99.90;;;;;;5071321;28;20119;-59
2023/08/26 02:09:44;;;;;;;4.10;2.17;;;20.30;99.90;;;;;;5070050;28;20071;-59
2023/08/26 02:12:10;;;;;;;4.35;1.80;;;20.30;99.90;;;;;;5070989;28;20032;-59
2023/08/26 02:14:35;;;;;;;4.20;1.80;;;20.20;99.90;;;;;;5070118;28;20063;-59
2023/08/26 02:17:01;;;;;;;5.10;1.70;;;20.20;99.90;;;;;;5070463;28;20446;-58
2023/08/26 02:19:27;;;;;;;4.88;2.05;;;20.20;99.90;;;;;;5071110;28;20099;-59
2023/08/26 02:21:52;;;;;;;6.22;2.00;;;20.20;99.90;;;;;;5074491;28;20040;-59
2023/08/26 02:24:18;;;;;;;4.63;2.20;;;20.20;99.90;;;;;;5074209;28;20020;-59
2023/08/26 02:26:44;;;;;;;3.38;1.98;;;20.20;99.90;;;;;;5074336;28;20124;-59
2023/08/26 02:29:09;;;;;;;6.03;1.85;;;20.30;99.90;;;;;;5073873;28;20474;-59
2023/08/26 02:31:35;;;;;;;4.30;1.80;;;20.50;99.90;;;;;;5073982;28;20107;-58
2023/08/26 02:34:01;;;;;;;3.20;1.60;;;20.50;99.90;;;;;;5073945;28;20090;-59
2023/08/26 02:36:27;;;;;;;2.78;1.70;;;20.60;99.90;;;;;;5073839;28;20064;-58
2023/08/26 02:38:53;;;;;;;4.13;1.80;;;20.70;99.90;;;;;;5073905;28;20012;-58
2023/08/26 02:41:18;;;;;;;3.15;1.73;;;20.70;99.90;;;;;;5073945;28;20485;-59
2023/08/26 02:43:44;;;;;;;3.80;1.80;;;20.80;99.90;;;;;;5073487;28;20436;-58
2023/08/26 02:46:10;;;;;;;5.80;2.05;;;20.70;99.90;;;;;;5074126;28;20221;-58
2023/08/26 02:48:35;;;;;;;4.88;1.80;;;20.80;99.90;;;;;;5073812;28;20029;-59
2023/08/26 02:51:02;;;;;;;3.88;1.77;;;20.70;99.90;;;;;;5073756;28;20051;-59
2023/08/26 02:53:30;;;;;;;4.68;1.90;;;20.70;99.90;;;;;;5073604;28;20146;-59
2023/08/26 02:55:56;;;;;;;4.28;2.03;;;20.60;99.90;;;;;;5073644;28;20097;-58
2023/08/26 02:58:22;;;;;;;5.28;1.92;;;20.60;99.90;;;;;;5073184;28;20024;-59
2023/08/26 03:00:48;;;;;;;4.75;1.80;;;20.50;99.90;;;;;;5073449;28;20035;-59
2023/08/26 03:03:15;;;;;;;4.20;2.17;;;20.40;99.90;;;;;;5073682;28;20025;-59
2023/08/26 03:05:40;;;;;;;5.00;1.90;;;20.20;99.90;;;;;;5073622;28;20103;-59
2023/08/26 03:08:07;;;;;;;5.15;2.17;;;20.10;99.90;;;;;;5073418;28;20020;-59
2023/08/26 03:10:33;;;;;;;5.35;2.10;;;20.00;99.90;;;;;;5073446;28;20031;-58
2023/08/26 03:12:59;;;;;;;6.57;2.13;;;19.90;99.90;;;;;;5073305;28;20489;-59
2023/08/26 03:15:29;;;;;;;5.65;1.92;;;19.90;99.90;;;;;;5073073;28;20028;-59
2023/08/26 03:17:56;;;;;;;6.53;2.25;;;19.90;99.90;;;;;;5073194;28;20040;-59
2023/08/26 03:20:22;;;;;;;6.25;1.95;;;19.80;99.90;;;;;;5073198;28;20092;-59
2023/08/26 03:22:47;;;;;;;6.32;2.17;;;19.80;99.90;;;;;;5073048;28;20449;-59
2023/08/26 03:25:13;;;;;;;4.35;2.00;;;19.70;99.90;;;;;;5055166;28;20028;-59
2023/08/26 03:27:39;;;;;;;4.40;2.10;;;19.70;99.90;;;;;;5072602;28;20072;-59
2023/08/26 03:30:05;;;;;;;4.45;2.15;;;19.70;99.90;;;;;;5073281;28;20029;-59
2023/08/26 03:32:31;;;;;;;3.78;1.98;;;19.70;99.90;;;;;;5071613;28;20181;-59
2023/08/26 03:34:56;;;;;;;5.55;2.17;;;19.70;99.90;;;;;;5072900;28;20104;-59
2023/08/26 03:37:22;;;;;;;5.10;2.17;;;19.70;99.90;;;;;;5072778;28;20397;-58
2023/08/26 03:39:48;;;;;;;5.90;2.38;;;19.70;99.90;;;;;;5055330;28;20029;-59
2023/08/26 03:42:13;;;;;;;5.75;2.58;;;19.60;99.90;;;;;;5054653;28;20028;-58
2023/08/26 03:44:39;;;;;;;5.10;2.50;;;19.60;99.90;;;;;;5072574;28;20025;-58
2023/08/26 03:47:05;;;;;;;4.97;2.75;;;19.80;99.90;;;;;;5072552;28;20028;-58
2023/08/26 03:49:30;;;;;;;6.38;2.40;;;20.00;99.90;;;;;;5072654;28;20066;-59
2023/08/26 03:51:56;;;;;;;6.50;2.80;;;20.00;99.90;;;;;;5072442;28;20481;-59
2023/08/26 03:54:22;;;;;;;5.28;2.70;;;20.10;99.90;;;;;;5072511;28;20016;-59
2023/08/26 03:56:47;;;;;;;5.03;2.95;;;20.10;99.90;;;;;;5072478;28;20115;-58
2023/08/26 03:59:13;;;;;;;5.90;2.67;;;20.20;99.90;;;;;;5072439;28;20048;-58
2023/08/26 04:01:39;;;;;;;4.88;2.50;;;20.20;99.90;;;;;;5072267;28;20032;-59
2023/08/26 04:04:04;;;;;;;4.93;2.67;;;20.20;99.90;;;;;;5072563;28;20099;-58
2023/08/26 04:06:31;;;;;;;4.95;2.58;;;20.20;99.90;;;;;;5063988;28;20497;-59
2023/08/26 04:08:57;;;;;;;4.93;2.25;;;20.20;99.90;;;;;;5071645;28;20028;-59
2023/08/26 04:11:23;;;;;;;4.60;2.38;;;20.10;99.90;;;;;;5072132;28;20035;-59
2023/08/26 04:13:48;;;;;;;5.10;2.50;;;20.10;99.90;;;;;;5072112;28;20022;-59
2023/08/26 04:16:19;;;;;;;7.13;2.25;;;20.00;99.90;;;;;;5071743;28;20037;-59
2023/08/26 04:18:45;;;;;;;3.88;2.40;;;20.00;99.90;;;;;;5072395;28;20029;-58
2023/08/26 04:21:10;;;;;;;4.47;2.10;;;19.80;99.90;;;;;;5071869;28;20027;-59
2023/08/26 04:23:36;;;;;;;5.22;2.20;;;19.70;99.90;;;;;;5071835;28;20036;-59
2023/08/26 04:26:02;;;;;;;4.90;2.25;;;19.60;99.90;;;;;;5071498;28;20063;-59
2023/08/26 04:28:29;;;;;;;5.13;2.10;;;19.50;99.90;;;;;;5072062;28;20025;-59
2023/08/26 04:30:55;;;;;;;3.83;2.30;;;19.50;99.90;;;;;;5053765;28;20060;-59
2023/08/26 04:33:21;;;;;;;4.68;2.38;;;19.40;99.90;;;;;;5071986;28;20405;-59
2023/08/26 04:35:46;;;;;;;5.07;2.40;;;19.40;99.90;;;;;;5071635;28;20027;-59
2023/08/26 04:38:13;;;;;;;4.32;2.08;;;19.40;99.90;;;;;;5071684;28;20032;-59
2023/08/26 04:40:41;;;;;;;4.82;2.20;;;19.40;99.90;;;;;;5071277;28;20016;-59
2023/08/26 04:43:06;;;;;;;4.22;2.22;;;19.30;99.90;;;;;;5071519;28;20455;-59
2023/08/26 04:45:32;;;;;;;5.78;2.35;;;19.30;99.90;;;;;;5071132;28;20021;-59
2023/08/26 04:47:57;;;;;;;5.43;2.30;;;19.30;99.90;;;;;;5071910;28;20078;-59
2023/08/26 04:50:23;;;;;;;4.80;2.50;;;19.20;99.90;;;;;;5071395;28;20046;-59
2023/08/26 04:52:49;;;;;;;5.40;2.35;;;19.20;99.90;;;;;;5053350;28;20039;-59
2023/08/26 04:55:14;;;;;;;6.03;2.60;;;19.20;99.90;;;;;;5071099;28;20393;-59
2023/08/26 04:57:41;;;;;;;3.42;1.95;;;19.20;99.90;;;;;;5071604;28;20040;-59
2023/08/26 05:00:10;;;;;;;4.43;2.45;;;19.20;99.90;;;;;;5071213;28;20385;-58
2023/08/26 05:02:39;;;;;;;4.53;2.40;;;19.20;99.90;;;;;;5071256;28;20037;-58
2023/08/26 05:05:05;;;;;;;5.30;2.35;;;19.40;99.90;;;;;;5071452;28;20367;-58
2023/08/26 05:07:32;;;;;;;5.10;2.20;;;19.60;99.90;;;;;;5062927;28;20035;-59
2023/08/26 05:09:57;;;;;;;4.15;2.10;;;19.60;99.90;;;;;;5071381;28;20111;-59
2023/08/26 05:12:24;;;;;;;4.63;2.40;;;19.70;99.90;;;;;;5071199;28;20108;-59
2023/08/26 05:14:49;;;;;;;3.70;2.03;;;19.80;99.90;;;;;;5070866;28;20021;-59
2023/08/26 05:17:16;;;;;;;5.45;2.20;;;19.90;99.90;;;;;;5071423;28;20081;-59
2023/08/26 05:19:42;;;;;;;4.97;2.03;;;19.90;99.90;;;;;;5071178;28;20095;-58
2023/08/26 05:22:08;;;;;;;4.43;2.25;;;19.90;99.90;;;;;;5071218;28;20036;-59
2023/08/26 05:24:34;;;;;;;6.07;2.40;;;20.00;99.90;;;;;;5071000;28;20021;-59
2023/08/26 05:26:59;;;;;;;5.30;2.58;;;19.90;99.90;;;;;;5071235;28;20057;-59
2023/08/26 05:29:25;;;;;;;5.32;2.20;;;19.90;99.90;;;;;;5070975;28;20404;-59
2023/08/26 05:31:51;;;;;;;3.80;2.20;;;19.80;99.90;;;;;;5071000;28;20040;-59
2023/08/26 05:34:16;;;;;;;4.13;2.10;;;19.80;99.90;;;;;;5070946;28;20020;-58
2023/08/26 05:36:42;;;;;;;4.50;2.08;;;19.70;99.90;;;;;;5070854;28;20040;-59
2023/08/26 05:39:08;;;;;;;6.90;2.40;;;19.60;99.90;;;;;;5052611;28;20044;-58
2023/08/26 05:41:33;;;;;;;2.78;2.00;;;19.50;99.90;;;;;;5071245;28;20036;-59
2023/08/26 05:43:59;;;;;;;6.25;2.20;;;19.40;99.90;;;;;;5070865;28;20021;-59
2023/08/26 05:46:25;;;;;;;5.82;2.30;;;19.30;99.90;;;;;;5070883;28;20036;-59
2023/08/26 05:48:50;;;;;;;4.25;2.35;;;19.20;99.90;;;;;;5070788;28;20025;-59
2023/08/26 05:51:16;;;;;;;6.40;2.40;;;19.20;99.90;;;;;;5070912;28;20032;-59
2023/08/26 05:53:41;;;;;;;4.00;2.40;;;19.10;99.90;;;;;;5070400;28;20023;-58
2023/08/26 05:56:07;;;;;;;5.95;2.45;;;19.20;99.90;;;;;;5074027;28;20078;-57
2023/08/26 05:58:33;;;;;;;5.00;2.40;;;19.20;99.90;;;;;;5074614;28;20048;-59
2023/08/26 06:00:59;;;;;;;7.00;2.47;;;19.20;99.90;;;;;;5074996;28;20474;-59
2023/08/26 06:03:24;;;;;;;4.47;2.30;;;19.20;99.90;;;;;;5074483;28;20028;-59
2023/08/26 06:05:50;;;;;;;4.93;2.20;;;19.20;99.90;;;;;;5074619;28;20135;-58
2023/08/26 06:08:16;;;;;;;6.65;2.50;;;19.20;99.90;;;;;;5074117;28;20028;-58
2023/08/26 06:10:41;;;;;;;4.68;2.17;;;19.20;99.90;;;;;;5074526;28;20056;-58
2023/08/26 06:13:07;;;;;;;4.93;2.05;;;19.20;99.90;;;;;;5074304;28;20033;-57
2023/08/26 06:15:33;;;;;;;4.75;2.10;;;19.20;99.90;;;;;;5087382;28;20117;-57
2023/08/26 06:17:59;;;;;;;5.72;2.22;;;19.30;99.90;;;;;;5094492;28;20028;-56
2023/08/26 06:20:26;;;;;;;4.05;2.20;;;19.30;99.90;;;;;;5082423;28;20373;-57
2023/08/26 06:22:52;;;;;;;5.38;2.45;;;19.40;99.90;;;;;;5074137;28;20092;-57
2023/08/26 06:25:18;;;;;;;5.78;2.30;;;19.70;99.90;;;;;;5072939;28;20107;-57
2023/08/26 06:27:43;;;;;;;4.15;2.10;;;19.80;99.90;;;;;;5073497;28;20174;-58
2023/08/26 06:30:11;;;;;;;4.55;2.08;;;19.90;99.90;;;;;;5073811;28;20509;-58
2023/08/26 06:32:36;;;;;;;4.38;2.00;;;20.00;99.90;;;;;;5074071;28;20075;-58
2023/08/26 06:35:04;;;;;;;4.65;2.20;;;20.20;99.90;;;;;;5074411;28;20064;-58
2023/08/26 06:37:30;;;;;;;4.78;2.13;;;20.20;99.90;;;;;;5073156;28;20078;-58
2023/08/26 06:39:55;;;;;;;5.75;2.40;;;20.30;99.90;;;;;;5074415;28;20098;-58
2023/08/26 06:42:21;;;;;;;4.28;2.35;;;20.30;99.90;;;;;;5055645;28;20028;-58
2023/08/26 06:44:47;;;;;;;5.80;1.92;;;20.40;99.90;;;;;;5073770;28;20102;-58
2023/08/26 06:47:12;;;;;;;4.18;1.90;;;20.40;99.90;;;;;;5073896;28;20028;-58
2023/08/26 06:49:38;;;;;;;3.95;2.13;;;20.50;99.90;;;;;;5074056;28;20027;-58
2023/08/26 06:52:04;;;;;;;2.97;1.77;;;20.50;99.90;;;;;;5073041;28;20068;-57
2023/08/26 06:54:30;;;;;;;5.13;1.98;;;20.40;99.90;;;;;;5073523;28;20025;-58
2023/08/26 06:56:55;;;;;;;5.07;2.20;;;20.30;99.90;;;;;;5072676;28;20120;-58
2023/08/26 06:59:21;;;;;;;5.18;2.15;;;20.30;99.90;;;;;;5073326;28;20044;-57
2023/08/26 07:01:47;;;;;;;3.72;1.67;;;20.20;99.90;;;;;;5073508;28;20035;-58
2023/08/26 07:04:12;;;;;;;4.97;1.70;;;20.20;99.90;;;;;;5073196;28;20082;-58
2023/08/26 07:06:38;;;;;;;4.55;2.05;;;20.30;99.90;;;;;;5073045;28;20029;-57
2023/08/26 07:09:04;;;;;;;4.13;1.70;;;20.40;99.90;;;;;;5073670;28;20028;-58
2023/08/26 07:11:30;;;;;;;5.78;1.90;;;20.30;99.90;;;;;;5073053;28;20039;-58
2023/08/26 07:13:57;;;;;;;2.42;1.40;;;20.30;99.90;;;;;;5073593;28;20032;-58
2023/08/26 07:16:24;;;;;;;3.55;1.95;;;20.40;99.90;;;;;;5072979;28;20524;-58
2023/08/26 07:18:49;;;;;;;5.22;1.70;;;20.50;99.90;;;;;;5073186;28;20080;-58
2023/08/26 07:21:15;;;;;;;3.35;1.80;;;20.50;99.90;;;;;;5073341;28;20036;-58
2023/08/26 07:23:41;;;;;;;5.70;1.73;;;20.50;99.90;;;;;;5073061;28;20033;-58
2023/08/26 07:26:07;;;;;;;4.32;1.98;;;20.50;99.90;;;;;;5072858;28;20039;-58
2023/08/26 07:28:32;;;;;;;3.58;1.58;;;20.50;99.90;;;;;;5073015;28;20436;-59
2023/08/26 07:31:05;;;;;;;3.70;1.95;;;20.50;99.90;;;;;;5073151;28;20025;-58
2023/08/26 07:33:32;;;;;;;4.22;1.88;;;20.60;99.90;;;;;;5072491;28;20511;-58
2023/08/26 07:36:06;;;;;;;4.00;1.70;;;20.80;99.90;;;;;;5072834;28;20098;-57
2023/08/26 07:38:32;;;;;;;5.05;1.50;;;20.90;99.90;;;;;;5072739;28;20408;-58
2023/08/26 07:40:58;;;;;;;4.90;1.65;;;20.90;99.90;;;;;;5072770;28;20017;-58
2023/08/26 07:43:24;;;;;;;5.15;1.95;;;21.00;99.90;;;;;;5072586;28;20020;-57
2023/08/26 07:45:50;;;;;;;4.15;1.50;;;21.10;99.90;;;;;;5072698;28;20382;-58
2023/08/26 07:48:15;;;;;;;4.63;1.60;;;21.20;99.90;;;;;;5072266;28;20608;-57
2023/08/26 07:50:41;;;;;;;4.55;1.90;;;21.30;99.90;;;;;;5072669;28;20418;-58
2023/08/26 07:53:08;;;;;;;3.70;1.50;;;21.30;99.90;;;;;;5072410;28;20025;-57
2023/08/26 07:55:33;;;;;;;5.78;1.55;;;21.20;99.90;;;;;;5072741;28;20029;-58
2023/08/26 07:57:59;;;;;;;2.97;1.60;;;21.20;99.90;;;;;;5072410;28;20523;-58
2023/08/26 08:00:26;;;;;;;4.63;1.80;;;21.20;99.90;;;;;;5072441;28;20032;-57
2023/08/26 08:02:52;;;;;;;4.68;1.60;;;21.20;99.90;;;;;;5054025;28;20447;-57
2023/08/26 08:05:17;;;;;;;5.68;1.70;;;21.30;99.90;;;;;;5072707;28;20032;-57
2023/08/26 08:07:43;;;;;;;4.15;1.80;;;21.40;99.90;;;;;;5071938;28;20024;-56
2023/08/26 08:10:09;;;;;;;3.75;1.60;;;21.50;99.90;;;;;;5072231;28;20115;-58
2023/08/26 08:12:35;;;;;;;3.28;1.50;;;21.60;99.90;;;;;;5071987;28;20103;-57
2023/08/26 08:15:03;;;;;;;2.70;1.45;;;21.60;99.90;;;;;;5071909;28;20070;-57
2023/08/26 08:17:30;;;;;;;3.63;1.70;;;21.50;99.90;;;;;;5071173;28;20154;-58
2023/08/26 08:19:56;;;;;;;3.55;1.67;;;21.40;99.90;;;;;;5072039;28;20441;-58
2023/08/26 08:22:35;;;;;;;2.95;1.40;;;21.40;99.90;;;;;;5071819;28;20063;-57
2023/08/26 08:25:02;;;;;;;4.32;1.48;;;21.30;99.90;;;;;;5071981;28;20032;-58
2023/08/26 08:27:28;;;;;;;3.45;1.50;;;21.50;99.90;;;;;;5072041;28;20052;-58
2023/08/26 08:29:54;;;;;;;4.65;1.50;;;21.60;99.90;;;;;;5071955;28;20473;-58
2023/08/26 08:32:21;;;;;;;5.45;1.52;;;21.60;99.90;;;;;;5071377;28;20021;-58
2023/08/26 08:34:46;;;;;;;2.95;1.52;;;21.60;99.90;;;;;;5071827;28;20048;-58
2023/08/26 08:37:12;;;;;;;2.78;1.70;;;21.60;99.90;;;;;;5053451;28;20488;-58
2023/08/26 08:39:37;;;;;;;3.15;1.80;;;21.50;99.90;;;;;;5071556;28;20035;-59
2023/08/26 08:42:04;;;;;;;2.13;1.30;;;21.50;99.90;;;;;;5071626;28;20029;-59
2023/08/26 08:44:34;;;;;;;4.13;1.50;;;21.60;99.90;;;;;;5072023;28;20475;-58
2023/08/26 08:47:04;;;;;;;3.00;1.30;;;21.60;99.90;;;;;;5071254;28;20447;-58
2023/08/26 08:49:32;;;;;;;3.05;1.40;;;21.50;99.90;;;;;;5071528;28;20021;-59
2023/08/26 08:51:58;;;;;;;3.33;1.40;;;21.30;99.90;;;;;;5071355;28;20082;-58
2023/08/26 08:54:26;;;;;;;3.78;1.50;;;21.30;99.90;;;;;;5071853;28;20028;-58
2023/08/26 08:56:52;;;;;;;2.63;1.35;;;21.30;99.90;;;;;;5071339;28;20049;-58
2023/08/26 08:59:19;;;;;;;3.30;1.20;;;21.40;99.90;;;;;;5071658;28;20020;-59
2023/08/26 09:01:45;;;;;;;2.30;1.27;;;21.60;99.90;;;;;;5071101;28;20020;-58
2023/08/26 09:04:11;;;;;;;2.60;1.42;;;21.70;99.90;;;;;;5071612;28;20035;-58
2023/08/26 09:06:38;;;;;;;4.25;1.60;;;21.90;99.90;;;;;;5053326;28;20036;-58
2023/08/26 09:09:10;;;;;;;2.38;1.20;;;22.10;99.90;;;;;;5071144;28;20024;-58
2023/08/26 09:11:37;;;;;;;5.47;1.55;;;22.20;99.90;;;;;;5063738;28;20481;-59
2023/08/26 09:14:03;;;;;;;6.18;1.20;;;22.20;99.90;;;;;;5071294;28;20098;-58
2023/08/26 09:16:37;;;;;;;3.42;1.20;;;22.30;99.90;;;;;;5070905;28;20036;-58
2023/08/26 09:19:10;;;;;;;2.33;1.10;;;22.30;99.90;;;;;;5071023;28;20031;-59
2023/08/26 09:21:54;;;;;;;2.30;1.13;;;22.40;99.90;;;;;;5071074;28;20056;-59
2023/08/26 09:24:20;;;;;;;;;;;22.50;99.90;;;;;;5071451;28;20032;-58
2023/08/26 09:27:06;;;;;;;3.72;1.40;;;22.60;99.90;;;;;;5070933;28;20011;-59
2023/08/26 09:29:32;;;;;;;2.55;1.20;;;22.60;99.90;;;;;;5072855;28;20036;-58
2023/08/26 09:31:58;;;;;;;3.83;1.42;;;22.70;99.90;;;;;;5075422;28;20089;-58
2023/08/26 09:34:26;;;;;;;2.30;1.20;;;22.60;99.90;;;;;;5074923;28;20462;-58
2023/08/26 09:36:52;;;;;;;2.00;1.17;;;22.50;99.90;;;;;;5074909;28;20060;-59
2023/08/26 09:39:18;;;;;;;2.80;1.20;;;22.40;99.90;;;;;;5075613;28;20480;-58
2023/08/26 09:41:45;;;;;;;4.45;1.30;;;22.30;99.90;;;;;;5074959;28;20059;-58
2023/08/26 09:44:12;;;;;;;2.03;1.20;;;22.30;99.90;;;;;;5074624;28;20032;-58
2023/08/26 09:46:42;;;;;;;2.30;1.20;;;22.30;99.90;;;;;;5075081;28;20024;-59
2023/08/26 09:49:15;;;;;;;1.77;1.10;;;22.30;99.90;;;;;;5075307;28;20036;-58
2023/08/26 09:51:52;;;;;;;2.58;1.13;;;22.20;99.90;;;;;;5074909;28;20131;-59
2023/08/26 09:54:19;;;;;;;2.22;1.10;;;22.20;99.90;;;;;;5074831;28;20025;-58
2023/08/26 09:56:49;;;;;;;2.05;1.00;;;22.20;99.90;;;;;;5074845;28;20466;-58
2023/08/26 09:59:15;;;;;;;3.00;1.00;;;22.20;99.90;;;;;;5074417;28;20017;-58
2023/08/26 10:01:42;;;;;;;1.55;1.10;;;22.30;99.90;;;;;;5074827;28;20098;-58
2023/08/26 10:04:20;;;;;;;3.70;1.30;;;22.40;99.90;;;;;;5074868;28;20074;-58
2023/08/26 10:06:56;;;;;;;2.55;1.00;;;22.50;99.90;;;;;;5074543;28;20040;-59
2023/08/26 10:09:41;;;;;;;1.67;0.95;;;22.50;99.90;;;;;;5074494;28;20017;-58
2023/08/26 10:12:12;;;;;;;1.83;1.10;;;22.50;99.90;;;;;;5074599;28;20170;-58
2023/08/26 10:14:40;;;;;;;1.20;1.00;;;22.60;99.90;;;;;;5074071;28;20037;-58
2023/08/26 10:17:11;;;;;;;2.13;1.20;;;22.50;99.90;;;;;;5074735;28;20032;-59
2023/08/26 10:19:38;;;;;;;2.00;0.90;;;22.60;99.90;;;;;;5074098;28;20035;-59
2023/08/26 10:22:05;;;;;;;2.22;1.30;;;22.80;99.90;;;;;;5074363;28;20027;-58
2023/08/26 10:24:30;;;;;;;1.40;0.90;;;23.10;99.90;;;;;;5074322;28;20377;-58
2023/08/26 10:26:56;;;;;;;2.33;1.05;;;23.10;99.90;;;;;;5074499;28;20500;-58
2023/08/26 10:29:23;;;;;;;2.00;1.02;;;23.30;99.90;;;;;;5073830;28;20393;-58
2023/08/26 10:31:51;;;;;;;1.90;1.00;;;23.60;99.90;;;;;;5074152;28;20052;-59
2023/08/26 10:34:16;;;;;;;3.33;1.20;;;23.80;99.90;;;;;;5074147;28;20477;-59
2023/08/26 10:36:46;;;;;;;1.90;1.10;;;24.00;99.90;;;;;;5074314;28;20021;-58
2023/08/26 10:39:15;;;;;;;1.90;0.90;;;24.00;99.90;;;;;;5073580;28;20423;-58
2023/08/26 10:42:16;;;;;;;1.52;1.00;;;23.90;99.90;;;;;;5073009;28;20065;-59
2023/08/26 10:44:46;;;;;;;2.35;1.10;;;23.90;99.90;;;;;;5073594;28;20020;-58
2023/08/26 10:47:12;;;;;;;3.38;1.08;;;23.80;99.90;;;;;;5073555;28;20066;-58
2023/08/26 10:49:37;;;;;;;2.13;1.10;;;23.80;99.90;;;;;;5073711;28;20413;-59
2023/08/26 10:52:15;;;;;;;2.78;1.42;;;24.00;99.90;;;;;;5073674;28;20033;-58
2023/08/26 10:54:45;;;;;;;1.85;0.93;;;23.90;99.90;;;;;;5073918;28;20116;-59
2023/08/26 10:57:11;;;;;;;2.38;1.15;;;23.80;99.90;;;;;;5073532;28;20473;-59
2023/08/26 10:59:41;;;;;;;1.88;1.00;;;23.70;99.90;;;;;;5055658;28;20115;-59
2023/08/26 11:02:09;;;;;;;2.50;1.10;;;23.50;99.90;;;;;;5073399;28;20397;-58
2023/08/26 11:04:45;;;;;;;2.75;0.85;;;23.40;99.90;;;;;;5073596;28;20017;-59
2023/08/26 11:07:20;;;;;;;1.45;0.77;;;23.30;99.90;;;;;;5073448;28;20477;-58
2023/08/26 11:09:46;;;;;;;2.72;0.90;;;23.40;99.90;;;;;;5062369;28;20079;-59
2023/08/26 11:12:25;;;;;;;1.83;0.90;;;23.50;99.90;;;;;;5072013;28;20501;-59
2023/08/26 11:14:51;;;;;;;1.75;1.00;;;23.80;99.90;;;;;;5075330;28;20032;-58
2023/08/26 11:17:18;;;;;;;2.35;1.33;;;23.80;99.90;;;;;;5093436;28;20123;-58
2023/08/26 11:19:44;;;;;;;1.98;1.02;;;24.00;99.90;;;;;;5086980;28;20028;-56
2023/08/26 11:22:10;;;;;;;1.55;0.95;;;24.20;99.90;;;;;;5072871;28;20020;-58
2023/08/26 11:24:36;;;;;;;2.25;1.00;;;23.90;99.90;;;;;;5073456;28;20024;-58
2023/08/26 11:27:03;;;;;;;1.95;1.00;;;23.80;99.90;;;;;;5072693;28;20059;-58
2023/08/26 11:29:29;;;;;;;1.83;1.08;;;23.60;99.90;;;;;;5073019;28;20027;-58
2023/08/26 11:31:55;;;;;;;2.50;1.02;;;23.70;99.90;;;;;;5072571;28;20538;-58
2023/08/26 11:34:23;;;;;;;2.25;0.93;;;23.90;99.90;;;;;;5072572;28;20031;-58
2023/08/26 11:36:51;;;;;;;1.38;0.80;;;24.20;99.90;;;;;;5073093;28;20021;-57
2023/08/26 11:39:18;;;;;;;1.80;0.80;;;24.20;99.90;;;;;;5072997;28;20105;-59
2023/08/26 11:41:43;;;;;;;1.73;0.80;;;24.10;99.90;;;;;;5067996;28;20039;-58
2023/08/26 11:44:16;;;;;;;1.75;0.90;;;24.20;99.90;;;;;;5064869;28;20029;-59
2023/08/26 11:46:43;;;;;;;1.80;1.10;;;24.50;99.90;;;;;;5064073;28;20032;-57
2023/08/26 11:49:11;;;;;;;2.80;0.90;;;24.10;99.90;;;;;;5061760;28;20032;-59
2023/08/26 11:51:40;;;;;;;1.75;0.80;;;24.00;99.90;;;;;;5051975;28;20028;-58
2023/08/26 11:54:22;;;;;;;1.88;1.00;;;24.20;99.90;;;;;;5064469;28;20037;-58
2023/08/26 11:56:48;;;;;;;1.42;0.90;;;24.20;99.90;;;;;;5053324;28;20025;-58
2023/08/26 11:59:21;;;;;;;1.50;0.82;;;24.40;99.90;;;;;;5072562;28;20028;-59
2023/08/26 12:01:47;;;;;;;1.40;0.80;;;24.40;99.90;;;;;;5069007;28;20033;-58
2023/08/26 12:04:15;;;;;;;1.77;0.82;;;24.60;99.90;;;;;;5052581;28;20397;-58
2023/08/26 12:06:41;;;;;;;1.67;0.98;;;24.50;99.90;;;;;;5052034;28;20501;-59
2023/08/26 12:09:07;;;;;;;1.98;0.75;;;24.40;99.90;;;;;;5052092;28;20037;-59
2023/08/26 12:11:39;;;;;;;1.35;0.77;;;24.30;99.90;;;;;;5052129;28;20098;-59
2023/08/26 12:14:18;;;;;;;1.63;0.85;;;24.10;99.90;;;;;;5052697;28;20025;-58
2023/08/26 12:16:44;;;;;;;2.47;0.90;;;23.90;99.90;;;;;;5066950;28;20043;-58
2023/08/26 12:19:18;;;;;;;2.35;0.75;;;23.80;99.90;;;;;;5059679;28;20033;-59
2023/08/26 12:21:50;;;;;;;3.25;0.98;;;23.80;99.90;;;;;;5051883;28;20036;-57
2023/08/26 12:24:21;;;;;;;1.52;0.80;;;23.90;99.90;;;;;;5051574;28;20159;-59
2023/08/26 12:26:47;;;;;;;2.25;0.90;;;23.80;99.90;;;;;;5052599;28;20064;-58
2023/08/26 12:29:13;;;;;;;2.13;0.88;;;23.80;99.90;;;;;;5061189;28;20531;-58
2023/08/26 12:31:39;;;;;;;1.40;0.60;;;23.70;99.90;;;;;;5065586;28;20025;-58
2023/08/26 12:34:04;;;;;;;1.50;0.75;;;23.80;99.90;;;;;;5051549;28;20116;-58
2023/08/26 12:36:30;;;;;;;2.78;1.00;;;23.70;99.90;;;;;;5064230;28;20036;-58
2023/08/26 12:38:56;;;;;;;3.17;0.90;;;23.50;99.90;;;;;;5071108;28;20447;-59
2023/08/26 12:41:22;;;;;;;3.13;0.88;;;23.50;99.90;;;;;;5071907;28;20025;-57
2023/08/26 12:43:50;;;;;;;1.50;0.73;;;23.60;99.90;;;;;;5071420;28;20075;-58
2023/08/26 12:46:15;;;;;;;1.73;0.90;;;23.60;99.90;;;;;;5071651;28;20017;-59
2023/08/26 12:48:41;;;;;;;2.13;0.80;;;23.50;99.90;;;;;;5071536;28;20055;-58